Time;durP1;ratioP1;P1;durP2;ratioP2;P2;SDS_P1;SDS_P2;PMS_P1;PMS_P2;Temp;Humidity;BMP_temperature;BMP_pressure;BME280_temperature;BME280_humidity;BME280_pressure;Samples;Min_cycle;Max_cycle;Signal;HPM_P1;HPM_P2
2021/03/17 00:02:03;;;;;;;10.87;2.73;;;;;;;2.44;100.00;99553.04;3764831;77;400204;-82
2021/03/17 00:07:24;;;;;;;3.60;2.80;;;;;;;2.42;100.00;99565.37;3764473;77;396116;-81
2021/03/17 00:12:47;;;;;;;3.37;1.70;;;;;;;2.28;100.00;99554.01;3765003;77;388021;-81
2021/03/17 00:18:12;;;;;;;2.40;2.00;;;;;;;2.34;100.00;99555.96;3741547;78;393157;-81
2021/03/17 00:23:33;;;;;;;3.23;1.80;;;;;;;2.54;100.00;99555.34;3893657;75;394988;-81
2021/03/17 00:28:54;;;;;;;7.93;2.30;;;;;;;2.55;100.00;99546.06;3771067;77;396125;-81
2021/03/17 00:34:15;;;;;;;1.60;1.50;;;;;;;2.50;100.00;99544.13;3745612;78;394289;-82
2021/03/17 00:39:37;;;;;;;2.03;1.50;;;;;;;2.20;100.00;99537.24;3903323;74;396440;-82
2021/03/17 00:44:58;;;;;;;2.90;1.67;;;;;;;1.96;100.00;99532.25;3889707;74;395057;-81
2021/03/17 00:50:22;;;;;;;2.70;1.97;;;;;;;1.86;100.00;99533.46;3773713;77;387770;-81
2021/03/17 00:55:42;;;;;;;2.27;1.40;;;;;;;1.89;100.00;99524.67;3742231;77;392160;-81
2021/03/17 01:01:04;;;;;;;10.30;2.70;;;;;;;1.94;100.00;99524.45;3742281;77;396357;-81
2021/03/17 01:06:25;;;;;;;3.57;3.27;;;;;;;2.15;100.00;99512.23;3741682;78;396125;-81
2021/03/17 01:11:47;;;;;;;3.63;2.37;;;;;;;2.23;100.00;99509.99;3741890;78;394165;-81
2021/03/17 01:17:08;;;;;;;1.47;1.37;;;;;;;2.18;100.00;99506.14;3742449;78;392174;-81
2021/03/17 01:22:30;;;;;;;3.67;2.23;;;;;;;2.11;100.00;99505.86;3741785;77;396135;-81
2021/03/17 01:27:53;;;;;;;1.40;1.30;;;;;;;2.53;100.00;99506.23;3742107;78;396171;-81
2021/03/17 01:33:15;;;;;;;1.33;1.17;;;;;;;2.48;100.00;99511.88;3743258;78;392196;-81
2021/03/17 01:38:36;;;;;;;2.73;2.53;;;;;;;2.45;100.00;99516.62;3747722;77;394006;-81
2021/03/17 01:43:59;;;;;;;6.13;2.00;;;;;;;2.20;100.00;99522.86;3764763;77;396334;-81
2021/03/17 01:49:20;;;;;;;5.33;3.70;;;;;;;2.09;100.00;99521.70;3764912;78;389085;-81
2021/03/17 01:54:41;;;;;;;2.33;2.13;;;;;;;1.85;100.00;99520.24;3764582;77;393966;-82
2021/03/17 02:00:05;;;;;;;0.93;0.83;;;;;;;1.78;100.00;99518.05;3765668;78;383601;-81
2021/03/17 02:05:38;;;;;;;2.83;2.63;;;;;;;1.97;100.00;99519.73;3764653;77;396037;-81
2021/03/17 02:10:59;;;;;;;6.60;1.47;;;;;;;1.86;100.00;99511.77;3765856;76;394227;-81
2021/03/17 02:16:35;;;;;;;12.20;3.03;;;;;;;1.84;100.00;99518.65;3764717;77;394045;-82
2021/03/17 02:22:14;;;;;;;1.00;0.80;;;;;;;1.76;100.00;99508.66;3766725;76;389836;-81
2021/03/17 02:27:50;;;;;;;1.70;1.60;;;;;;;2.01;100.00;99511.73;3765457;76;394234;-81
2021/03/17 02:33:47;;;;;;;2.93;2.10;;;;;;;1.74;100.00;99519.05;3784508;76;391933;-81
2021/03/17 02:39:14;;;;;;;2.97;1.80;;;;;;;1.86;100.00;99504.98;3759831;76;396366;-81
2021/03/17 02:44:39;;;;;;;2.30;1.97;;;;;;;1.87;100.00;99511.19;3895062;75;391904;-81
2021/03/17 02:50:02;;;;;;;2.03;1.60;;;;;;;1.93;100.00;99505.81;3748620;77;396318;-81
2021/03/17 02:55:28;;;;;;;1.20;0.70;;;;;;;1.83;100.00;99506.21;3896021;75;383798;-80
2021/03/17 03:00:49;;;;;;;5.30;4.13;;;;;;;2.02;100.00;99509.25;3895321;75;396353;-80
2021/03/17 03:06:11;;;;;;;1.20;1.00;;;;;;;2.14;100.00;99509.28;3749260;78;387850;-81
2021/03/17 03:11:33;;;;;;;1.93;1.00;;;;;;;1.93;100.00;99503.09;3896161;74;383826;-81
2021/03/17 03:17:00;;;;;;;1.20;1.10;;;;;;;1.98;100.00;99509.09;3895980;74;385692;-81
2021/03/17 03:22:24;;;;;;;11.13;2.50;;;;;;;2.07;100.00;99517.95;3895663;74;396311;-82
2021/03/17 03:27:48;;;;;;;4.00;1.90;;;;;;;2.13;100.00;99513.11;3895423;74;396298;-81
2021/03/17 03:33:10;;;;;;;3.67;2.03;;;;;;;2.04;100.00;99513.75;3750077;76;396362;-81
2021/03/17 03:38:33;;;;;;;1.90;0.80;;;;;;;2.00;100.00;99520.41;3897171;74;394273;-81
2021/03/17 03:43:54;;;;;;;3.80;1.33;;;;;;;1.91;100.00;99525.11;3908279;74;395039;-81
2021/03/17 03:49:16;;;;;;;1.57;1.47;;;;;;;1.78;100.00;99522.66;3908155;74;396435;-80
2021/03/17 03:54:52;;;;;;;1.73;1.30;;;;;;;1.78;100.00;99518.59;3885785;75;396034;-81
2021/03/17 04:00:19;;;;;;;2.83;2.70;;;;;;;1.83;100.00;99523.84;3773484;77;392943;-81
2021/03/17 04:05:41;;;;;;;1.90;1.80;;;;;;;1.87;100.00;99528.27;3772799;77;396332;-80
2021/03/17 04:11:03;;;;;;;22.23;2.20;;;;;;;1.88;100.00;99526.34;3772693;77;396084;-80
2021/03/17 04:16:26;;;;;;;1.70;1.20;;;;;;;1.57;100.00;99530.01;3742647;78;383590;-80
2021/03/17 04:21:49;;;;;;;3.43;3.17;;;;;;;1.77;100.00;99530.59;3741888;78;396046;-80
2021/03/17 04:27:13;;;;;;;1.40;0.90;;;;;;;1.72;100.00;99533.48;3743372;78;383588;-80
2021/03/17 04:32:37;;;;;;;2.50;1.60;;;;;;;1.42;100.00;99537.38;3742149;77;396093;-81
2021/03/17 04:37:59;;;;;;;1.17;0.80;;;;;;;1.37;100.00;99544.89;3711090;78;383585;-81
2021/03/17 04:43:21;;;;;;;1.67;1.07;;;;;;;1.53;100.00;99544.01;3785196;76;389883;-80
2021/03/17 04:48:47;;;;;;;1.17;1.07;;;;;;;1.39;100.00;99545.37;3755452;78;383612;-81
2021/03/17 04:54:08;;;;;;;2.70;2.03;;;;;;;1.52;100.00;99553.26;3754545;78;396033;-81
2021/03/17 04:59:31;;;;;;;3.97;2.73;;;;;;;1.71;100.00;99559.02;3754577;77;395321;-80
2021/03/17 05:04:54;;;;;;;6.70;1.80;;;;;;;1.64;100.00;99573.11;3754738;78;391876;-80
2021/03/17 05:10:17;;;;;;;2.03;1.63;;;;;;;1.57;100.00;99568.55;3755199;77;383960;-80
2021/03/17 05:15:40;;;;;;;2.83;2.50;;;;;;;1.41;100.00;99575.08;3756292;76;390051;-80
2021/03/17 05:21:02;;;;;;;2.30;0.97;;;;;;;1.51;100.00;99571.19;3755204;77;392405;-80
2021/03/17 05:26:26;;;;;;;3.00;0.90;;;;;;;1.30;100.00;99567.08;3754790;78;394275;-81
2021/03/17 05:31:50;;;;;;;5.73;2.83;;;;;;;1.13;100.00;99569.09;3755135;78;391932;-81
2021/03/17 05:37:12;;;;;;;2.57;2.37;;;;;;;0.93;100.00;99580.09;3754936;78;396326;-81
2021/03/17 05:42:33;;;;;;;1.77;1.57;;;;;;;0.89;100.00;99580.48;3758482;77;396429;-80
2021/03/17 05:47:55;;;;;;;2.33;0.80;;;;;;;0.91;100.00;99586.38;3761139;77;389833;-81
2021/03/17 05:53:16;;;;;;;0.90;0.60;;;;;;;1.06;100.00;99583.13;3756013;77;383584;-80
2021/03/17 05:58:40;;;;;;;1.37;0.80;;;;;;;1.28;100.00;99592.92;3755491;77;386671;-81
2021/03/17 06:04:03;;;;;;;0.90;0.80;;;;;;;1.49;100.00;99596.50;3755266;78;390363;-81
2021/03/17 06:09:25;;;;;;;1.20;1.07;;;;;;;1.50;100.00;99595.34;3755552;78;383762;-81
2021/03/17 06:14:51;;;;;;;1.87;1.30;;;;;;;1.56;100.00;99597.55;3754875;77;393940;-81
2021/03/17 06:20:14;;;;;;;0.80;0.47;;;;;;;1.73;100.00;99596.09;3756131;78;383833;-82
2021/03/17 06:25:37;;;;;;;1.10;0.63;;;;;;;1.74;100.00;99601.76;3757087;76;383538;-81
2021/03/17 06:30:59;;;;;;;1.20;1.03;;;;;;;1.69;100.00;99601.96;3755068;78;391977;-82
2021/03/17 06:36:24;;;;;;;2.47;1.43;;;;;;;1.69;100.00;99577.55;3754839;78;396085;-81
2021/03/17 06:41:53;;;;;;;0.90;0.70;;;;;;;1.82;100.00;99594.12;3744530;77;385677;-81
2021/03/17 06:47:20;;;;;;;1.03;0.93;;;;;;;2.00;100.00;99584.75;3753840;78;392956;-81
2021/03/17 06:52:44;;;;;;;2.07;1.27;;;;;;;2.21;100.00;99595.83;3889583;75;396122;-81
2021/03/17 06:58:05;;;;;;;7.80;1.00;;;;;;;2.41;100.00;99611.28;3890288;74;383976;-82
2021/03/17 07:03:27;;;;;;;6.10;1.60;;;;;;;2.46;100.00;99614.59;3889647;75;391892;-82
2021/03/17 07:08:49;;;;;;;5.60;1.63;;;;;;;2.55;100.00;99601.73;3889522;74;396306;-82
2021/03/17 07:14:10;;;;;;;1.60;1.17;;;;;;;2.63;100.00;99623.94;3740947;77;393954;-82
2021/03/17 07:19:41;;;;;;;0.97;0.83;;;;;;;2.75;100.00;99625.33;3746274;78;383589;-82
2021/03/17 07:25:05;;;;;;;1.80;1.70;;;;;;;2.88;100.00;99631.05;3754060;77;387763;-81
2021/03/17 07:30:28;;;;;;;6.63;2.30;;;;;;;3.04;100.00;99636.61;3765570;77;387809;-82
2021/03/17 07:35:50;;;;;;;0.90;0.60;;;;;;;3.17;100.00;99640.38;3766607;77;383549;-82
2021/03/17 07:41:13;;;;;;;1.10;0.80;;;;;;;3.01;100.00;99637.30;3763305;76;391912;-82
2021/03/17 07:46:35;;;;;;;0.90;0.50;;;;;;;3.22;100.00;99623.88;3828225;75;387734;-82
2021/03/17 07:52:01;;;;;;;1.37;1.17;;;;;;;3.17;100.00;99626.25;3827378;76;388789;-82
2021/03/17 07:57:28;;;;;;;0.80;0.50;;;;;;;3.42;100.00;99634.66;3828149;75;383579;-82
2021/03/17 08:02:48;;;;;;;1.57;1.10;;;;;;;3.67;100.00;99641.70;3828540;75;393964;-82
2021/03/17 08:08:10;;;;;;;1.10;0.90;;;;;;;3.72;100.00;99648.80;3828126;75;383610;-82
2021/03/17 08:13:33;;;;;;;0.90;0.60;;;;;;;3.57;100.00;99644.05;3828400;75;383588;-83
2021/03/17 08:18:54;;;;;;;4.67;1.23;;;;;;;3.66;100.00;99638.74;3827258;75;396536;-81
2021/03/17 08:24:36;;;;;;;0.87;0.67;;;;;;;3.91;100.00;99647.67;3828293;76;383847;-82
2021/03/17 08:30:06;;;;;;;0.80;0.50;;;;;;;4.13;100.00;99647.41;3828136;75;383836;-81
2021/03/17 08:35:47;;;;;;;1.10;0.73;;;;;;;3.85;100.00;99650.41;3828379;75;387836;-81
2021/03/17 08:41:08;;;;;;;1.13;1.03;;;;;;;3.93;100.00;99645.41;3813738;75;385970;-81
2021/03/17 08:46:32;;;;;;;8.23;1.80;;;;;;;4.06;100.00;99641.75;3889264;75;390111;-81
2021/03/17 08:51:58;;;;;;;5.50;1.00;;;;;;;4.15;100.00;99644.36;3770572;76;392144;-80
2021/03/17 08:57:19;;;;;;;2.60;2.10;;;;;;;4.28;100.00;99645.91;3900160;73;393939;-82
2021/03/17 09:02:43;;;;;;;1.63;1.10;;;;;;;4.64;100.00;99642.50;3766713;77;389870;-82
2021/03/17 09:08:08;;;;;;;1.00;0.73;;;;;;;4.94;100.00;99647.80;3765354;77;389869;-82
2021/03/17 09:13:49;;;;;;;1.30;1.20;;;;;;;4.83;99.89;99647.52;3896443;74;383582;-81
2021/03/17 09:19:16;;;;;;;1.37;1.10;;;;;;;4.87;94.82;99650.34;3765762;77;396302;-81
2021/03/17 09:24:39;;;;;;;1.10;0.50;;;;;;;4.94;97.86;99649.17;3767715;77;387796;-81
2021/03/17 09:30:00;;;;;;;1.70;1.60;;;;;;;5.19;94.74;99647.90;3766976;78;385676;-82
2021/03/17 09:35:22;;;;;;;1.47;1.20;;;;;;;5.67;92.03;99648.38;3766764;77;394396;-82
2021/03/17 09:40:47;;;;;;;1.40;0.70;;;;;;;6.06;89.20;99651.47;3896345;74;387839;-81
2021/03/17 09:46:32;;;;;;;0.90;0.63;;;;;;;5.73;85.08;99652.41;3855140;72;383611;-82
2021/03/17 09:51:56;;;;;;;8.80;1.20;;;;;;;5.34;89.07;99658.84;3822497;75;388734;-81
2021/03/17 09:57:17;;;;;;;0.90;0.60;;;;;;;5.42;88.41;99652.97;3821839;76;384997;-82
2021/03/17 10:02:41;;;;;;;1.00;0.73;;;;;;;5.53;86.52;99659.72;3822284;77;383835;-82
2021/03/17 10:08:02;;;;;;;0.90;0.80;;;;;;;5.71;87.98;99662.33;3821658;75;383807;-82
2021/03/17 10:13:24;;;;;;;0.90;0.70;;;;;;;5.78;87.25;99665.80;3822868;75;383832;-81
2021/03/17 10:18:51;;;;;;;1.53;1.13;;;;;;;5.69;87.60;99665.19;3821641;75;393981;-82
2021/03/17 10:24:12;;;;;;;1.40;0.87;;;;;;;5.41;91.66;99670.52;3821222;75;394241;-82
2021/03/17 10:29:34;;;;;;;0.80;0.60;;;;;;;5.44;90.21;99667.06;3822439;75;383579;-82
2021/03/17 10:34:56;;;;;;;0.80;0.60;;;;;;;5.18;94.49;99665.40;3822589;77;383553;-82
2021/03/17 10:40:25;;;;;;;3.10;1.33;;;;;;;5.03;90.93;99662.08;3821542;75;394179;-82
2021/03/17 10:45:51;;;;;;;2.50;1.50;;;;;;;4.88;94.31;99658.75;3866500;75;396099;-82
2021/03/17 10:51:14;;;;;;;0.93;0.77;;;;;;;5.08;94.12;99656.39;3884305;74;383858;-82
2021/03/17 10:56:36;;;;;;;0.90;0.50;;;;;;;5.47;94.90;99662.28;3884344;75;384549;-82
2021/03/17 11:02:16;;;;;;;0.80;0.50;;;;;;;5.93;92.32;99651.37;3884212;74;383791;-82
2021/03/17 11:07:52;;;;;;;7.33;1.47;;;;;;;6.07;90.14;99651.10;3773523;77;387962;-82
2021/03/17 11:13:16;;;;;;;0.90;0.60;;;;;;;6.12;89.57;99644.58;3743020;78;388248;-82
2021/03/17 11:18:50;;;;;;;2.00;0.97;;;;;;;5.71;89.62;99646.50;3742743;78;388727;-82
2021/03/17 11:24:20;;;;;;;0.80;0.50;;;;;;;5.70;89.67;99647.09;3743044;78;383601;-82
2021/03/17 11:29:44;;;;;;;0.90;0.60;;;;;;;5.60;84.21;99644.11;3743234;77;384567;-81
2021/03/17 11:35:07;;;;;;;1.73;0.70;;;;;;;5.87;82.15;99644.02;3742930;78;383597;-81
2021/03/17 11:40:29;;;;;;;1.20;1.10;;;;;;;6.08;81.28;99645.86;3727962;77;391892;-82
2021/03/17 11:45:52;;;;;;;0.83;0.60;;;;;;;6.07;76.28;99652.47;3757808;76;384520;-81
2021/03/17 11:51:14;;;;;;;0.90;0.60;;;;;;;5.86;75.81;99658.00;3723709;76;383593;-81
2021/03/17 11:56:36;;;;;;;0.90;0.50;;;;;;;5.46;77.88;99656.59;3766358;77;384665;-81
2021/03/17 12:01:57;;;;;;;1.10;0.60;;;;;;;5.66;76.38;99647.56;3765407;77;387795;-81
2021/03/17 12:07:20;;;;;;;0.87;0.60;;;;;;;5.73;65.35;99650.48;3765799;77;383790;-81
2021/03/17 12:12:42;;;;;;;0.80;0.40;;;;;;;5.89;64.93;99652.66;3765380;77;383837;-81
2021/03/17 12:18:04;;;;;;;1.27;0.60;;;;;;;6.06;63.90;99641.91;3765206;77;390025;-81
2021/03/17 12:23:25;;;;;;;0.80;0.40;;;;;;;6.42;62.26;99639.59;3765540;77;384561;-82
2021/03/17 12:28:47;;;;;;;1.00;0.50;;;;;;;6.70;63.27;99634.73;3765351;78;383573;-82
2021/03/17 12:34:08;;;;;;;0.97;0.50;;;;;;;6.88;61.65;99624.34;3765486;77;384554;-82
2021/03/17 12:39:29;;;;;;;1.00;0.50;;;;;;;7.35;59.41;99626.19;3765289;77;385726;-82
2021/03/17 12:44:50;;;;;;;0.80;0.50;;;;;;;7.27;59.55;99617.05;3765748;77;384804;-82
2021/03/17 12:50:14;;;;;;;1.80;0.93;;;;;;;6.90;59.27;99618.50;3765192;77;393947;-82
2021/03/17 12:55:36;;;;;;;0.80;0.40;;;;;;;6.62;57.96;99624.22;3765822;77;383860;-82
2021/03/17 13:00:57;;;;;;;1.47;0.50;;;;;;;6.01;57.08;99617.62;3765391;77;389933;-81
2021/03/17 13:06:18;;;;;;;1.00;0.80;;;;;;;5.84;59.53;99620.14;3765172;77;391900;-81
2021/03/17 13:11:39;;;;;;;0.80;0.40;;;;;;;5.76;58.73;99619.77;3765835;77;383852;-82
2021/03/17 13:17:01;;;;;;;0.80;0.50;;;;;;;5.79;59.36;99617.70;3765967;77;383832;-82
2021/03/17 13:22:22;;;;;;;0.97;0.80;;;;;;;6.05;58.55;99617.91;3765788;78;383813;-82
2021/03/17 13:27:44;;;;;;;0.93;0.40;;;;;;;6.55;60.20;99613.70;3765688;77;385620;-82
2021/03/17 13:33:05;;;;;;;0.80;0.50;;;;;;;6.60;55.50;99609.33;3765967;77;384569;-82
2021/03/17 13:38:27;;;;;;;0.90;0.63;;;;;;;6.59;57.15;99615.36;3765957;77;384574;-82
2021/03/17 13:43:48;;;;;;;0.90;0.60;;;;;;;7.07;55.61;99611.20;3765672;77;385676;-81
2021/03/17 13:49:09;;;;;;;0.83;0.50;;;;;;;6.75;53.26;99609.82;3760372;78;384554;-82
2021/03/17 13:54:33;;;;;;;1.07;0.83;;;;;;;7.21;55.39;99611.67;3909500;74;388726;-82
2021/03/17 13:59:54;;;;;;;0.80;0.50;;;;;;;8.60;52.56;99603.45;3909363;74;383833;-82
2021/03/17 14:05:17;;;;;;;1.73;0.80;;;;;;;8.79;51.71;99604.08;3908973;75;390755;-81
2021/03/17 14:10:39;;;;;;;0.80;0.50;;;;;;;9.62;49.56;99606.05;3909321;74;385899;-82
2021/03/17 14:16:01;;;;;;;1.77;0.80;;;;;;;9.90;45.91;99602.16;3908909;75;385601;-82
2021/03/17 14:21:22;;;;;;;0.97;0.53;;;;;;;9.14;50.54;99607.18;3909064;74;387748;-82
2021/03/17 14:26:43;;;;;;;1.27;0.77;;;;;;;8.42;51.20;99613.97;3908949;74;387694;-81
2021/03/17 14:32:05;;;;;;;1.00;0.90;;;;;;;7.88;53.94;99616.31;3908778;74;389719;-81
2021/03/17 14:37:26;;;;;;;0.80;0.50;;;;;;;7.22;54.49;99619.33;3781355;76;384551;-82
2021/03/17 14:42:47;;;;;;;0.80;0.50;;;;;;;7.07;53.15;99620.20;3755546;77;384512;-82
2021/03/17 14:48:10;;;;;;;2.30;0.70;;;;;;;6.86;54.06;99625.28;3750673;77;390761;-81
2021/03/17 14:53:33;;;;;;;2.90;1.40;;;;;;;6.58;55.74;99632.91;3750845;78;394230;-81
2021/03/17 14:58:55;;;;;;;1.20;0.77;;;;;;;6.72;56.69;99633.77;3755293;76;388964;-81
2021/03/17 15:04:18;;;;;;;0.90;0.57;;;;;;;6.72;57.52;99639.23;3754455;77;383593;-82
2021/03/17 15:09:38;;;;;;;3.00;1.50;;;;;;;6.87;55.86;99632.89;3726084;78;390787;-81
2021/03/17 15:15:00;;;;;;;1.00;0.87;;;;;;;6.95;56.45;99625.84;3737147;78;390751;-82
2021/03/17 15:20:25;;;;;;;0.83;0.47;;;;;;;6.94;56.08;99624.85;3737859;78;384511;-82
2021/03/17 15:25:46;;;;;;;2.00;1.13;;;;;;;6.98;54.39;99629.80;3743373;78;394270;-81
2021/03/17 15:31:07;;;;;;;0.80;0.50;;;;;;;7.01;52.53;99632.59;3754227;77;383585;-82
2021/03/17 15:36:28;;;;;;;1.00;0.80;;;;;;;7.23;54.44;99634.56;3754143;78;384519;-82
2021/03/17 15:41:49;;;;;;;2.27;1.67;;;;;;;7.39;53.07;99635.27;3753114;78;396366;-82
2021/03/17 15:47:11;;;;;;;1.67;0.83;;;;;;;7.49;53.33;99635.44;3745385;77;394943;-82
2021/03/17 15:52:32;;;;;;;1.00;0.80;;;;;;;7.60;53.76;99643.83;3765409;77;384505;-82
2021/03/17 15:57:55;;;;;;;1.87;1.00;;;;;;;7.55;54.94;99652.36;3765020;77;390751;-82
2021/03/17 16:03:16;;;;;;;1.00;0.87;;;;;;;7.07;58.70;99651.66;3765667;77;388962;-82
2021/03/17 16:08:38;;;;;;;2.07;1.40;;;;;;;6.83;58.00;99660.76;3765548;77;384885;-81
2021/03/17 16:14:00;;;;;;;2.40;0.67;;;;;;;6.63;60.93;99669.54;3765040;77;394294;-82
2021/03/17 16:19:21;;;;;;;1.10;0.90;;;;;;;6.31;62.56;99668.63;3765431;77;384767;-81
2021/03/17 16:24:42;;;;;;;2.37;2.17;;;;;;;6.25;61.42;99673.37;3765205;78;384518;-81
2021/03/17 16:30:07;;;;;;;4.73;1.17;;;;;;;6.14;62.96;99679.16;3764692;78;394021;-81
2021/03/17 16:35:29;;;;;;;2.67;1.00;;;;;;;5.96;64.41;99686.95;3764642;78;394911;-82
2021/03/17 16:40:50;;;;;;;1.10;1.00;;;;;;;5.99;65.34;99688.95;3764994;77;383829;-81
2021/03/17 16:46:17;;;;;;;1.20;0.90;;;;;;;5.75;63.75;99691.84;3764492;76;383826;-81
2021/03/17 16:51:35;;;;;;;5.13;1.20;;;;;;;5.56;64.89;99699.97;3727945;74;383550;-81
2021/03/17 16:56:58;;;;;;;3.63;1.20;;;;;;;5.31;67.26;99709.99;3703902;77;383820;-81
2021/03/17 17:02:20;;;;;;;0.90;0.60;;;;;;;5.02;69.94;99719.11;3709274;78;383810;-81
2021/03/17 17:07:42;;;;;;;4.70;1.13;;;;;;;4.96;71.21;99716.42;3706272;78;391957;-81
2021/03/17 17:13:04;;;;;;;1.40;1.07;;;;;;;5.01;71.96;99709.34;3710239;76;387834;-82
2021/03/17 17:18:25;;;;;;;0.90;0.60;;;;;;;4.91;73.86;99707.91;3709905;78;383798;-82
2021/03/17 17:23:48;;;;;;;1.97;1.00;;;;;;;4.91;73.93;99713.95;3755602;77;389777;-81
2021/03/17 17:29:10;;;;;;;3.90;1.00;;;;;;;4.90;73.85;99720.53;3741876;77;394009;-81
2021/03/17 17:34:31;;;;;;;0.90;0.60;;;;;;;4.70;75.07;99728.89;3754345;77;383620;-81
2021/03/17 17:39:52;;;;;;;1.03;0.83;;;;;;;4.57;74.50;99739.02;3753562;78;392165;-81
2021/03/17 17:45:15;;;;;;;1.93;1.40;;;;;;;4.37;76.20;99751.43;3726682;78;396093;-82
2021/03/17 17:50:38;;;;;;;1.57;1.23;;;;;;;4.24;76.50;99761.54;3753293;77;395031;-81
2021/03/17 17:55:59;;;;;;;0.90;0.70;;;;;;;4.15;77.18;99767.66;3756639;76;385657;-81
2021/03/17 18:01:21;;;;;;;15.90;1.70;;;;;;;4.01;77.91;99765.86;3754455;78;394231;-82
2021/03/17 18:06:43;;;;;;;1.73;1.37;;;;;;;3.87;79.60;99776.05;3754483;78;395035;-81
2021/03/17 18:12:04;;;;;;;2.60;2.00;;;;;;;3.76;79.95;99781.11;3754321;78;396069;-81
2021/03/17 18:17:27;;;;;;;5.90;1.90;;;;;;;3.63;80.31;99789.62;3754456;78;395056;-81
2021/03/17 18:22:48;;;;;;;4.30;2.10;;;;;;;3.44;80.47;99794.19;3754359;78;396113;-81
2021/03/17 18:28:10;;;;;;;5.23;3.37;;;;;;;3.25;81.11;99800.70;3754487;77;395268;-81
2021/03/17 18:33:31;;;;;;;3.43;1.17;;;;;;;3.03;81.92;99806.27;3754997;78;392006;-81
2021/03/17 18:38:52;;;;;;;1.20;1.10;;;;;;;2.87;84.09;99818.29;3755002;77;391865;-81
2021/03/17 18:44:13;;;;;;;1.13;1.03;;;;;;;2.80;86.76;99822.10;3755582;78;391918;-81
2021/03/17 18:49:34;;;;;;;1.73;0.70;;;;;;;2.77;87.78;99826.82;3758666;77;383608;-81
2021/03/17 18:54:55;;;;;;;1.20;0.80;;;;;;;2.64;89.58;99822.99;3884606;75;391953;-81
2021/03/17 19:00:19;;;;;;;1.23;1.07;;;;;;;2.58;90.93;99828.39;3768954;77;392171;-81
2021/03/17 19:05:43;;;;;;;1.13;1.03;;;;;;;2.48;91.87;99828.22;3763402;77;391911;-81
2021/03/17 19:11:04;;;;;;;0.80;0.50;;;;;;;2.39;92.56;99830.18;3765806;77;383696;-81
2021/03/17 19:16:26;;;;;;;3.80;1.43;;;;;;;2.91;91.66;99825.22;3764525;77;396125;-81
2021/03/17 19:21:47;;;;;;;1.50;0.90;;;;;;;2.62;93.19;99828.77;3765557;78;383565;-81
2021/03/17 19:27:08;;;;;;;2.10;1.20;;;;;;;2.62;93.65;99826.05;3750810;77;394064;-81
2021/03/17 19:32:30;;;;;;;7.03;2.30;;;;;;;2.65;96.07;99829.48;3895714;74;394022;-81
2021/03/17 19:37:51;;;;;;;2.10;2.00;;;;;;;2.54;96.16;99835.62;3895594;75;392156;-81
2021/03/17 19:43:13;;;;;;;2.40;1.43;;;;;;;2.59;95.46;99836.20;3895775;74;389984;-81
2021/03/17 19:48:40;;;;;;;1.07;0.80;;;;;;;2.58;95.26;99841.43;3895901;74;392176;-81
2021/03/17 19:54:01;;;;;;;2.70;1.67;;;;;;;2.65;93.99;99838.98;3749868;76;396361;-81
2021/03/17 19:59:23;;;;;;;1.10;0.80;;;;;;;2.66;92.79;99842.48;3895881;75;388134;-81
2021/03/17 20:04:44;;;;;;;3.30;3.10;;;;;;;2.63;92.58;99843.94;3895882;74;391911;-81
2021/03/17 20:10:09;;;;;;;1.67;1.53;;;;;;;2.59;91.73;99847.06;3895469;74;389773;-81
2021/03/17 20:15:30;;;;;;;2.30;2.20;;;;;;;2.72;89.82;99849.30;3895629;75;392891;-81
2021/03/17 20:20:53;;;;;;;1.60;1.10;;;;;;;2.64;89.57;99850.97;3895120;74;392223;-81
2021/03/17 20:26:14;;;;;;;5.50;2.33;;;;;;;2.59;91.03;99849.78;3895108;75;396105;-81
2021/03/17 20:31:37;;;;;;;1.50;1.23;;;;;;;2.59;93.44;99851.14;3749405;77;389887;-81
2021/03/17 20:36:57;;;;;;;1.50;1.40;;;;;;;2.42;95.54;99842.30;3895513;74;383578;-81
2021/03/17 20:42:19;;;;;;;2.27;2.03;;;;;;;2.25;96.34;99855.95;3895038;75;391907;-81
2021/03/17 20:47:42;;;;;;;1.00;0.90;;;;;;;2.23;95.85;99862.84;3772366;77;383798;-81
2021/03/17 20:53:05;;;;;;;1.23;1.10;;;;;;;2.21;95.20;99859.64;3896737;72;394257;-81
2021/03/17 20:58:26;;;;;;;1.40;0.97;;;;;;;2.25;94.64;99853.81;3895493;74;383563;-81
2021/03/17 21:03:48;;;;;;;1.37;1.23;;;;;;;2.41;96.47;99865.95;3895317;74;393994;-81
2021/03/17 21:09:09;;;;;;;5.63;2.80;;;;;;;2.44;97.54;99868.00;3894846;74;396118;-81
2021/03/17 21:14:30;;;;;;;2.20;1.10;;;;;;;2.52;95.92;99878.02;3895624;74;392169;-81
2021/03/17 21:19:53;;;;;;;2.30;1.07;;;;;;;2.71;93.09;99875.69;3895421;74;393987;-81
2021/03/17 21:25:16;;;;;;;1.53;1.27;;;;;;;2.47;95.00;99874.69;3895193;74;396138;-81
2021/03/17 21:30:40;;;;;;;1.30;1.20;;;;;;;2.36;96.97;99884.34;3749779;77;383786;-81
2021/03/17 21:36:01;;;;;;;0.90;0.70;;;;;;;2.34;96.76;99886.00;3896658;74;383791;-81
2021/03/17 21:41:24;;;;;;;1.27;1.17;;;;;;;2.43;100.00;99895.48;3895663;74;392171;-81
2021/03/17 21:46:45;;;;;;;1.10;1.00;;;;;;;2.43;100.00;99901.70;3772448;76;391923;-81
2021/03/17 21:52:06;;;;;;;4.07;2.97;;;;;;;2.45;100.00;99898.10;3895555;75;396093;-80
2021/03/17 21:57:27;;;;;;;2.30;1.70;;;;;;;2.35;100.00;99899.03;3895209;74;396104;-81
2021/03/17 22:02:51;;;;;;;1.50;1.33;;;;;;;2.51;100.00;99902.80;3895760;74;393950;-81
2021/03/17 22:08:13;;;;;;;2.33;1.30;;;;;;;2.57;100.00;99909.63;3895410;74;394061;-81
2021/03/17 22:13:34;;;;;;;4.13;1.93;;;;;;;2.42;100.00;99907.47;3895598;75;393951;-80
2021/03/17 22:18:56;;;;;;;5.93;2.23;;;;;;;2.30;100.00;99914.70;3895774;74;396026;-80
2021/03/17 22:24:17;;;;;;;3.10;2.73;;;;;;;2.36;100.00;99908.20;3895272;74;396042;-80
2021/03/17 22:29:38;;;;;;;5.47;3.57;;;;;;;2.04;100.00;99912.63;3729016;78;396078;-80
2021/03/17 22:34:59;;;;;;;2.87;2.30;;;;;;;1.80;100.00;99913.70;3895169;74;396105;-80
2021/03/17 22:40:20;;;;;;;4.03;1.10;;;;;;;1.79;100.00;99908.04;3748619;77;394005;-81
2021/03/17 22:45:41;;;;;;;1.03;0.93;;;;;;;1.74;100.00;99904.94;3895582;74;392163;-81
2021/03/17 22:51:08;;;;;;;2.57;1.20;;;;;;;1.89;100.00;99911.23;3900329;74;395053;-80
2021/03/17 22:56:29;;;;;;;2.10;1.90;;;;;;;1.75;100.00;99903.03;3784586;76;389893;-81
2021/03/17 23:01:50;;;;;;;1.40;0.97;;;;;;;1.74;100.00;99906.30;3750796;78;383590;-81
2021/03/17 23:07:14;;;;;;;1.30;1.20;;;;;;;1.65;100.00;99902.01;3742173;78;393987;-81
2021/03/17 23:12:35;;;;;;;1.43;0.90;;;;;;;1.52;100.00;99898.92;3742516;78;391060;-81
2021/03/17 23:18:05;;;;;;;1.00;0.80;;;;;;;1.37;100.00;99899.95;3742349;78;391931;-80
2021/03/17 23:23:32;;;;;;;1.97;1.60;;;;;;;1.11;100.00;99903.20;3742265;78;387745;-81
2021/03/17 23:28:56;;;;;;;2.40;1.40;;;;;;;0.93;100.00;99881.27;3741802;78;395274;-80
2021/03/17 23:34:23;;;;;;;1.60;1.50;;;;;;;0.86;100.00;99891.78;3741333;78;396126;-80
2021/03/17 23:39:47;;;;;;;1.90;1.70;;;;;;;0.84;100.00;99890.75;3742372;78;396064;-80
2021/03/17 23:45:12;;;;;;;1.50;0.93;;;;;;;0.88;100.00;99889.02;3742421;78;394007;-80
2021/03/17 23:50:41;;;;;;;1.90;1.80;;;;;;;0.82;100.00;99890.27;3746053;76;388008;-80
2021/03/17 23:56:05;;;;;;;0.90;0.50;;;;;;;0.81;100.00;99889.23;3784449;77;383541;-80
